Eidson, Tennessee
Current Conditions -  °F | °C
As of 2:55 PM on Friday 19 Dec 2014 (Local Time) from K0VG Reporting Station
Clear Clear  
Wind Chill: 43°   Ceiling: Unl
Heat Index: 43°   Visibility: 10mi
Dew Point: 23°   Wind: 3mph
Humidity: 46%   Direction: 360°N
Pressure: 30.17"   Gusts: NA
Location:  36.51°N, 83.03°W
Report Text: K0VG 191955Z AUTO 36003KT 10SM CLR 06/M05 A3017 RMK AO2
Loading
Personal Weather Stations






























Interactive Weather Map New forecast layout! Learn more

10-Day Weather Forecast

Advertisements
Track Severe Weather on mobile